Time;durP1;ratioP1;P1;durP2;ratioP2;P2;SDS_P1;SDS_P2;PMS_P1;PMS_P2;Temp;Humidity;BMP_temperature;BMP_pressure;BME280_temperature;BME280_humidity;BME280_pressure;Samples;Min_cycle;Max_cycle;Signal;HPM_P1;HPM_P2
2022/10/13 00:00:22;;;;;;;;;36.00;28.00;;;;;14.88;62.98;101787.56;5137433;27;69816;-77
2022/10/13 00:02:47;;;;;;;;;35.50;31.00;;;;;14.85;62.84;101795.50;5138098;27;46265;-77
2022/10/13 00:05:13;;;;;;;;;34.00;31.75;;;;;14.85;63.32;101798.13;5137400;27;68649;-77
2022/10/13 00:07:38;;;;;;;;;34.25;31.00;;;;;14.84;62.92;101793.75;5137357;27;63881;-77
2022/10/13 00:10:04;;;;;;;;;37.50;30.75;;;;;14.85;62.98;101796.34;5137125;27;57202;-77
2022/10/13 00:12:29;;;;;;;;;42.25;33.75;;;;;14.82;63.05;101801.69;5118617;27;46316;-77
2022/10/13 00:14:54;;;;;;;;;36.25;31.50;;;;;14.83;63.11;101808.63;5137007;27;71977;-78
2022/10/13 00:17:20;;;;;;;;;38.00;32.75;;;;;14.86;63.15;101797.22;5118920;27;64142;-77
2022/10/13 00:19:45;;;;;;;;;36.50;31.75;;;;;14.89;62.89;101803.25;5137125;27;66607;-77
2022/10/13 00:22:10;;;;;;;;;33.75;32.25;;;;;14.89;62.76;101797.13;5118292;27;75024;-77
2022/10/13 00:24:36;;;;;;;;;34.25;32.00;;;;;14.89;62.90;101791.88;5137700;27;45265;-78
2022/10/13 00:27:01;;;;;;;;;41.00;32.50;;;;;14.90;63.29;101781.34;5118998;27;55366;-77
2022/10/13 00:29:26;;;;;;;;;38.00;31.75;;;;;14.90;62.95;101773.47;5137496;27;59090;-77
2022/10/13 00:31:52;;;;;;;;;38.00;32.00;;;;;14.88;63.05;101758.72;5137741;27;46462;-77
2022/10/13 00:34:17;;;;;;;;;33.75;29.50;;;;;14.90;63.29;101760.38;5136926;27;61285;-77
2022/10/13 00:36:42;;;;;;;;;38.25;29.25;;;;;14.93;63.02;101755.94;5136790;27;67399;-77
2022/10/13 00:39:08;;;;;;;;;29.50;28.50;;;;;14.91;63.00;101753.34;5118477;27;56828;-77
2022/10/13 00:41:33;;;;;;;;;33.75;28.75;;;;;14.93;63.13;101756.78;5118444;27;63681;-77
2022/10/13 00:44:04;;;;;;;;;31.50;25.50;;;;;14.93;62.60;101759.41;5137065;27;64768;-78
2022/10/13 00:46:34;;;;;;;;;36.50;29.25;;;;;14.92;63.43;101765.56;5137901;27;45314;-77
2022/10/13 00:49:05;;;;;;;;;27.25;24.75;;;;;14.89;63.17;101766.53;5119371;27;45498;-77
2022/10/13 00:51:33;;;;;;;;;28.25;25.50;;;;;14.88;63.15;101769.19;5119238;27;46321;-77
2022/10/13 00:54:00;;;;;;;;;23.00;17.00;;;;;14.85;63.22;101770.13;5118768;27;45822;-77
2022/10/13 00:56:26;;;;;;;;;33.75;26.25;;;;;14.86;63.20;101769.25;5119372;27;45394;-77
2022/10/13 00:58:53;;;;;;;;;37.00;31.25;;;;;14.84;63.36;101763.19;5119102;27;45344;-77
2022/10/13 01:01:18;;;;;;;;;30.75;26.25;;;;;14.83;63.33;101764.09;5119016;27;45365;-77
2022/10/13 01:03:44;;;;;;;;;36.75;29.50;;;;;14.83;63.92;101764.09;5118942;27;45588;-77
2022/10/13 01:06:11;;;;;;;;;32.50;27.50;;;;;14.79;63.57;101765.09;5137248;27;45352;-78
2022/10/13 01:08:37;;;;;;;;;32.00;28.00;;;;;14.75;63.39;101770.47;5137373;27;45237;-77
2022/10/13 01:11:14;;;;;;;;;31.50;27.50;;;;;14.73;63.45;101778.38;5137542;27;46197;-77
2022/10/13 01:13:55;;;;;;;;;37.75;27.50;;;;;14.71;63.60;101764.47;5137232;27;45911;-77
2022/10/13 01:16:27;;;;;;;;;39.50;30.75;;;;;14.70;63.63;101765.34;5118953;27;45407;-77
2022/10/13 01:19:19;;;;;;;;;39.25;27.00;;;;;14.72;63.97;101742.59;5118854;27;45457;-77
2022/10/13 01:22:24;;;;;;;;;32.25;26.50;;;;;14.71;63.53;101751.38;5118507;27;45379;-77
2022/10/13 01:24:52;;;;;;;;;35.25;25.00;;;;;14.66;63.98;101755.88;5125762;27;45773;-77
2022/10/13 01:27:23;;;;;;;;;34.75;28.00;;;;;14.63;64.24;101750.72;5141154;27;45408;-77
2022/10/13 01:30:03;;;;;;;;;35.00;25.50;;;;;14.60;64.33;101745.56;5140862;27;45588;-77
2022/10/13 01:32:32;;;;;;;;;29.75;26.00;;;;;14.57;64.58;101730.81;5140462;27;46474;-78
2022/10/13 01:35:19;;;;;;;;;29.00;23.50;;;;;14.57;64.21;101743.91;5122005;27;45914;-77
2022/10/13 01:38:29;;;;;;;;;34.00;25.00;;;;;14.58;64.03;101739.50;5121566;27;45353;-77
2022/10/13 01:41:12;;;;;;;;;26.75;22.50;;;;;14.61;64.36;101734.19;5036158;28;45381;-77
2022/10/13 01:44:11;;;;;;;;;25.50;20.75;;;;;14.62;64.32;101735.91;5035983;28;45279;-77
2022/10/13 01:46:37;;;;;;;;;30.50;22.75;;;;;14.63;64.54;101750.72;4957121;28;45474;-77
2022/10/13 01:49:06;;;;;;;;;26.75;23.50;;;;;14.63;64.58;101750.72;4957082;28;45522;-77
2022/10/13 01:51:32;;;;;;;;;30.25;25.50;;;;;14.64;64.83;101744.59;4956644;28;45443;-77
2022/10/13 01:53:58;;;;;;;;;31.75;24.50;;;;;14.66;64.88;101737.53;4956163;28;66274;-77
2022/10/13 01:56:23;;;;;;;;;29.00;22.25;;;;;14.69;64.53;101729.56;4956094;28;70440;-77
2022/10/13 01:58:50;;;;;;;;;29.50;25.25;;;;;14.72;64.74;101732.09;4956975;28;45434;-78
2022/10/13 02:01:39;;;;;;;;;30.50;25.25;;;;;14.75;64.69;101739.88;4957041;28;45514;-77
2022/10/13 02:04:22;;;;;;;;;31.50;24.75;;;;;14.75;64.61;101739.88;4956681;28;46719;-77
2022/10/13 02:07:02;;;;;;;;;33.75;24.75;;;;;14.78;64.85;101731.91;4969603;28;45871;-77
2022/10/13 02:09:38;;;;;;;;;20.75;18.25;;;;;14.81;64.46;101725.72;4976244;28;45430;-77
2022/10/13 02:12:11;;;;;;;;;29.75;26.25;;;;;14.82;64.81;101727.44;5014776;28;45437;-77
2022/10/13 02:14:40;;;;;;;;;27.00;21.50;;;;;14.82;64.93;101725.69;5038899;28;47328;-77
2022/10/13 02:17:05;;;;;;;;;26.75;23.00;;;;;14.84;64.57;101710.78;5038861;28;45438;-77
2022/10/13 02:19:35;;;;;;;;;25.75;19.25;;;;;14.87;64.55;101705.41;5037950;28;69332;-77
2022/10/13 02:22:01;;;;;;;;;24.25;19.50;;;;;14.87;64.68;101707.19;5038646;28;45428;-77
2022/10/13 02:24:27;;;;;;;;;19.25;19.25;;;;;14.88;64.81;101712.38;5093500;27;46106;-77
2022/10/13 02:26:52;;;;;;;;;19.00;16.00;;;;;14.88;64.74;101701.91;5118066;27;71852;-77
2022/10/13 02:29:18;;;;;;;;;17.50;14.50;;;;;14.90;64.45;101710.56;5119371;27;45347;-77
2022/10/13 02:31:44;;;;;;;;;18.00;14.75;;;;;14.96;64.41;101701.66;5100521;27;45498;-77
2022/10/13 02:34:10;;;;;;;;;16.75;14.75;;;;;15.03;64.41;101699.69;5110332;27;47324;-78
2022/10/13 02:36:39;;;;;;;;;17.75;13.50;;;;;15.05;64.30;101690.00;5139370;27;45320;-77
2022/10/13 02:39:05;;;;;;;;;15.00;11.50;;;;;15.07;64.23;101686.41;5139812;27;45277;-77
2022/10/13 02:41:31;;;;;;;;;14.25;12.00;;;;;15.14;64.28;101668.75;5121072;27;45349;-78
2022/10/13 02:43:56;;;;;;;;;14.25;10.50;;;;;15.17;64.33;101658.13;5138983;27;65669;-77
2022/10/13 02:46:21;;;;;;;;;12.50;11.00;;;;;15.17;64.35;101673.84;5120159;27;67558;-77
2022/10/13 02:48:47;;;;;;;;;12.00;10.25;;;;;15.19;64.31;101672.06;5138719;27;69088;-78
2022/10/13 02:51:12;;;;;;;;;12.00;11.00;;;;;15.20;63.79;101679.00;5139102;27;45288;-78
2022/10/13 02:53:37;;;;;;;;;14.25;11.00;;;;;15.20;64.34;101678.16;5138631;27;65197;-77
2022/10/13 02:56:03;;;;;;;;;15.00;9.25;;;;;15.20;64.53;101678.16;5138624;27;67379;-77
2022/10/13 02:58:28;;;;;;;;;12.25;11.50;;;;;15.16;64.19;101685.28;5138960;27;54991;-77
2022/10/13 03:00:53;;;;;;;;;10.50;10.00;;;;;15.15;64.54;101682.69;5138665;27;60219;-77
2022/10/13 03:03:18;;;;;;;;;16.75;12.75;;;;;15.14;64.15;101679.22;5138801;27;55726;-77
2022/10/13 03:05:44;;;;;;;;;15.00;12.00;;;;;15.14;64.71;101673.97;5138678;27;50765;-77
2022/10/13 03:08:10;;;;;;;;;13.00;10.50;;;;;15.13;64.42;101674.88;5139229;27;45362;-77
2022/10/13 03:10:35;;;;;;;;;10.75;9.50;;;;;15.07;64.53;101673.31;5139264;27;45367;-77
2022/10/13 03:13:00;;;;;;;;;14.50;12.75;;;;;15.07;64.68;101675.94;5137780;27;75613;-77
2022/10/13 03:15:26;;;;;;;;;19.00;14.50;;;;;15.04;64.48;101662.94;5139016;27;45441;-77
2022/10/13 03:17:51;;;;;;;;;16.75;13.00;;;;;15.05;65.00;101664.66;5138336;27;62704;-77
2022/10/13 03:20:16;;;;;;;;;13.25;11.50;;;;;15.00;64.90;101656.06;5137637;27;66503;-77
2022/10/13 03:22:42;;;;;;;;;14.75;11.50;;;;;14.97;65.06;101650.94;5120239;27;47845;-78
2022/10/13 03:25:07;;;;;;;;;10.75;10.75;;;;;14.97;64.89;101653.56;5119329;27;70593;-77
2022/10/13 03:27:33;;;;;;;;;13.50;10.75;;;;;14.99;65.14;101650.88;5138963;27;45332;-78
2022/10/13 03:29:58;;;;;;;;;13.75;11.75;;;;;15.00;64.77;101653.44;5138167;27;65975;-78
2022/10/13 03:32:24;;;;;;;;;10.25;10.25;;;;;15.00;64.94;101647.34;5138431;27;45342;-78
2022/10/13 03:34:50;;;;;;;;;13.75;10.75;;;;;14.99;64.86;101650.88;5102269;27;72324;-77
2022/10/13 03:37:15;;;;;;;;;16.00;11.75;;;;;15.00;64.83;101634.25;5118143;27;45436;-78
2022/10/13 03:39:41;;;;;;;;;15.25;11.00;;;;;14.95;64.83;101631.78;5117041;27;68725;-77
2022/10/13 03:42:06;;;;;;;;;12.25;10.50;;;;;14.94;64.97;101611.72;5117864;27;46013;-77
2022/10/13 03:44:31;;;;;;;;;13.75;10.75;;;;;14.94;65.64;101609.09;5115595;27;71956;-77
2022/10/13 03:46:57;;;;;;;;;12.50;10.00;;;;;14.92;64.93;101620.53;5117633;27;45408;-76
2022/10/13 03:49:22;;;;;;;;;11.25;9.75;;;;;14.89;65.41;101622.38;5116909;27;64503;-78
2022/10/13 03:51:47;;;;;;;;;11.75;8.75;;;;;14.89;65.36;101616.25;5116680;27;72782;-77
2022/10/13 03:54:13;;;;;;;;;11.25;9.75;;;;;14.90;65.31;101610.94;5116693;27;71178;-77
2022/10/13 03:56:39;;;;;;;;;13.50;10.75;;;;;14.90;65.45;101610.09;5116633;27;45464;-77
2022/10/13 03:59:06;;;;;;;;;13.00;9.75;;;;;14.92;65.50;101613.53;5117808;27;45454;-77
2022/10/13 04:01:32;;;;;;;;;15.75;11.00;;;;;14.93;65.22;101614.38;5117194;27;45356;-77
2022/10/13 04:03:58;;;;;;;;;11.25;10.25;;;;;14.92;65.22;101620.53;5117585;27;45291;-77
2022/10/13 04:06:24;;;;;;;;;11.50;9.25;;;;;14.91;65.17;101609.19;5123193;27;45395;-77
2022/10/13 04:08:50;;;;;;;;;11.50;9.00;;;;;14.90;65.65;101618.81;5138486;27;45496;-77
2022/10/13 04:11:16;;;;;;;;;13.00;9.00;;;;;14.90;65.42;101616.19;5119662;27;46164;-77
2022/10/13 04:13:41;;;;;;;;;9.75;8.25;;;;;14.89;65.48;101624.09;5119641;27;45419;-78
2022/10/13 04:16:22;;;;;;;;;10.75;10.25;;;;;14.89;65.66;101630.22;5137970;27;45367;-77
2022/10/13 04:19:02;;;;;;;;;13.00;10.00;;;;;14.89;65.90;101634.59;5138226;27;45323;-77
2022/10/13 04:21:28;;;;;;;;;10.75;10.25;;;;;14.88;65.37;101627.66;5137820;27;45435;-78
2022/10/13 04:23:59;;;;;;;;;11.25;9.25;;;;;14.89;65.46;101619.75;5119511;27;45781;-77
2022/10/13 04:26:26;;;;;;;;;17.00;12.00;;;;;14.92;65.75;101629.25;5119964;27;45453;-78
2022/10/13 04:28:52;;;;;;;;;14.50;10.25;;;;;14.94;65.47;101635.31;5138162;27;45379;-78
2022/10/13 04:31:18;;;;;;;;;15.00;13.00;;;;;14.94;66.37;101639.69;5119001;27;46423;-77
2022/10/13 04:33:44;;;;;;;;;15.50;12.00;;;;;14.94;65.93;101631.84;5137518;27;45352;-77
2022/10/13 04:36:10;;;;;;;;;16.25;13.00;;;;;14.92;65.88;101629.25;5102139;27;45398;-78
2022/10/13 04:38:36;;;;;;;;;10.75;9.50;;;;;14.92;66.13;101621.38;5119387;27;45506;-77
2022/10/13 04:41:06;;;;;;;;;10.25;9.00;;;;;14.93;65.62;101625.72;5137049;27;67016;-77
2022/10/13 04:43:31;;;;;;;;;10.75;9.50;;;;;14.97;65.97;101624.72;5119151;27;45813;-77
2022/10/13 04:46:05;;;;;;;;;10.00;7.00;;;;;15.02;66.00;101614.91;5137645;27;45407;-77
2022/10/13 04:48:30;;;;;;;;;10.50;9.75;;;;;15.10;65.71;101612.91;5137693;27;45576;-77
2022/10/13 04:51:07;;;;;;;;;8.75;5.75;;;;;15.17;65.46;101613.53;5137535;27;46224;-77
2022/10/13 04:53:33;;;;;;;;;9.75;6.00;;;;;15.21;65.27;101611.69;5137428;27;45496;-77
2022/10/13 04:56:04;;;;;;;;;12.00;9.25;;;;;15.25;65.18;101608.06;5119360;27;45477;-77
2022/10/13 04:58:30;;;;;;;;;10.50;9.00;;;;;15.27;65.37;101608.84;5140497;27;45539;-77
2022/10/13 05:00:55;;;;;;;;;10.00;9.25;;;;;15.27;65.12;101609.72;5122352;27;46308;-77
2022/10/13 05:03:22;;;;;;;;;10.50;5.75;;;;;15.31;64.88;101599.13;5141148;27;45461;-77
2022/10/13 05:05:47;;;;;;;;;11.50;9.00;;;;;15.31;65.46;101607.00;5141194;27;45401;-77
2022/10/13 05:08:12;;;;;;;;;10.25;9.00;;;;;15.32;65.15;101612.16;5141209;27;45308;-77
2022/10/13 05:10:38;;;;;;;;;9.50;9.50;;;;;15.33;65.08;101597.28;5140037;27;75563;-77
2022/10/13 05:13:03;;;;;;;;;9.00;8.25;;;;;15.31;65.58;101604.38;5140968;27;45496;-78
2022/10/13 05:15:29;;;;;;;;;10.25;8.00;;;;;15.26;65.19;101596.63;5121514;27;63905;-77
2022/10/13 05:17:54;;;;;;;;;10.75;8.50;;;;;15.24;65.58;101603.72;5140284;27;67279;-77
2022/10/13 05:20:19;;;;;;;;;11.50;5.00;;;;;15.22;66.12;101598.50;5139614;27;75592;-78
2022/10/13 05:22:45;;;;;;;;;9.25;8.50;;;;;15.19;66.04;101593.41;5140916;27;45433;-76
2022/10/13 05:25:10;;;;;;;;;9.50;6.25;;;;;15.18;66.06;101598.69;5121469;27;68315;-75
2022/10/13 05:27:35;;;;;;;;;8.25;8.25;;;;;15.17;66.08;101603.06;5140157;27;65106;-77
2022/10/13 05:30:01;;;;;;;;;9.75;8.00;;;;;15.17;66.10;101600.44;5139519;27;74487;-76
2022/10/13 05:32:26;;;;;;;;;10.50;7.50;;;;;15.19;66.52;101595.13;5140409;27;56016;-77
2022/10/13 05:34:51;;;;;;;;;10.50;7.00;;;;;15.21;66.25;101582.81;5140717;27;45484;-77
2022/10/13 05:37:17;;;;;;;;;10.00;7.25;;;;;15.24;66.17;101587.97;5140740;27;45302;-78
2022/10/13 05:39:43;;;;;;;;;9.00;6.00;;;;;15.24;65.86;101582.72;5140559;27;46015;-79
2022/10/13 05:42:08;;;;;;;;;12.00;9.75;;;;;15.24;65.76;101574.84;5140752;27;45252;-77
2022/10/13 05:44:35;;;;;;;;;14.75;8.00;;;;;15.24;65.92;101569.63;5140409;27;45270;-77
2022/10/13 05:47:00;;;;;;;;;8.50;6.25;;;;;15.25;65.90;101558.22;5140744;27;45441;-78
2022/10/13 05:49:26;;;;;;;;;8.00;6.25;;;;;15.28;65.95;101552.84;5121734;27;47367;-78
2022/10/13 05:51:57;;;;;;;;;11.25;6.00;;;;;15.30;65.61;101551.03;5121848;27;45398;-79
2022/10/13 05:54:45;;;;;;;;;10.00;6.00;;;;;15.34;65.29;101557.03;5121694;27;45335;-78
2022/10/13 05:57:13;;;;;;;;;7.00;6.25;;;;;15.34;65.16;101564.91;5122059;27;45641;-78
2022/10/13 05:59:43;;;;;;;;;10.00;8.25;;;;;15.34;65.32;101570.13;5139924;27;45484;-78
2022/10/13 06:02:11;;;;;;;;;11.00;8.00;;;;;15.36;65.52;101582.31;5104742;27;45876;-78
2022/10/13 06:04:39;;;;;;;;;11.00;8.25;;;;;15.38;65.58;101580.47;5121885;27;45628;-78
2022/10/13 06:07:04;;;;;;;;;11.00;8.25;;;;;15.40;65.38;101588.31;5121764;27;45510;-78
2022/10/13 06:09:36;;;;;;;;;10.00;5.00;;;;;15.41;65.08;101582.97;5138217;27;59012;-78
2022/10/13 06:12:06;;;;;;;;;11.50;6.25;;;;;15.42;64.96;101574.22;5121703;27;45533;-78
2022/10/13 06:14:31;;;;;;;;;11.75;7.50;;;;;15.41;64.76;101577.72;5140126;27;45402;-78
2022/10/13 06:16:56;;;;;;;;;6.50;5.00;;;;;15.42;65.14;101583.84;5139195;27;70400;-78
2022/10/13 06:19:22;;;;;;;;;7.25;6.00;;;;;15.44;64.71;101590.75;5139086;27;73355;-78
2022/10/13 06:21:47;;;;;;;;;5.75;5.25;;;;;15.42;64.71;101592.56;5139465;27;57024;-78
2022/10/13 06:24:12;;;;;;;;;7.00;4.25;;;;;15.39;64.75;101579.56;5140182;27;45274;-78
2022/10/13 06:26:38;;;;;;;;;8.00;5.00;;;;;15.39;64.28;101573.47;5138645;27;68372;-77
2022/10/13 06:29:03;;;;;;;;;6.25;5.50;;;;;15.39;64.69;101569.06;5139086;27;69222;-77
2022/10/13 06:31:29;;;;;;;;;7.75;4.50;;;;;15.38;64.07;101580.47;5139834;27;45339;-77
2022/10/13 06:33:54;;;;;;;;;6.00;4.00;;;;;15.36;63.89;101571.81;5121095;27;45259;-77
2022/10/13 06:36:19;;;;;;;;;5.00;4.00;;;;;15.36;64.10;101569.19;5139099;27;70011;-78
2022/10/13 06:38:45;;;;;;;;;6.50;4.75;;;;;15.36;64.36;101579.69;5139529;27;46224;-77
2022/10/13 06:41:13;;;;;;;;;5.00;4.50;;;;;15.34;64.03;101578.00;5139379;27;45395;-78
2022/10/13 06:43:38;;;;;;;;;4.75;4.00;;;;;15.29;63.75;101575.56;5139865;27;45385;-78
2022/10/13 06:46:04;;;;;;;;;5.50;2.00;;;;;15.27;64.08;101573.00;5139794;27;45457;-77
2022/10/13 06:48:29;;;;;;;;;4.25;4.00;;;;;15.23;64.04;101575.75;5139719;27;46090;-77
2022/10/13 06:51:02;;;;;;;;;8.00;5.00;;;;;15.21;64.45;101585.44;5121055;27;45387;-77
2022/10/13 06:53:27;;;;;;;;;4.50;4.25;;;;;15.19;64.14;101575.03;5139504;27;45299;-77
2022/10/13 06:56:00;;;;;;;;;6.75;5.00;;;;;15.19;64.49;101582.03;5139403;27;45440;-77
2022/10/13 06:58:26;;;;;;;;;9.50;6.00;;;;;15.19;64.42;101585.53;5139375;27;47336;-77
2022/10/13 07:00:52;;;;;;;;;7.50;5.00;;;;;15.20;64.64;101587.22;5139367;27;45343;-78
2022/10/13 07:03:17;;;;;;;;;5.50;4.00;;;;;15.22;64.72;101590.66;5120275;27;60151;-77
2022/10/13 07:05:42;;;;;;;;;10.00;5.00;;;;;15.24;64.62;101587.97;5121024;27;45455;-77
2022/10/13 07:08:08;;;;;;;;;5.00;4.25;;;;;15.24;64.67;101594.06;5138678;27;59023;-77
2022/10/13 07:10:33;;;;;;;;;4.25;4.00;;;;;15.26;65.06;101596.63;5138022;27;69048;-77
2022/10/13 07:12:58;;;;;;;;;8.00;5.00;;;;;15.25;64.95;101593.16;5139339;27;45607;-77
2022/10/13 07:15:24;;;;;;;;;6.00;5.00;;;;;15.22;64.71;101590.66;5138250;27;69800;-77
2022/10/13 07:17:53;;;;;;;;;5.75;5.00;;;;;15.20;65.23;101592.47;5139040;27;46305;-77
2022/10/13 07:20:20;;;;;;;;;5.00;4.00;;;;;15.13;65.47;101596.22;5119999;27;45399;-77
2022/10/13 07:22:45;;;;;;;;;9.75;6.00;;;;;15.05;66.45;101598.25;5120617;27;45423;-77
2022/10/13 07:25:11;;;;;;;;;5.00;5.00;;;;;14.98;67.83;101599.34;5138948;27;45313;-77
2022/10/13 07:27:37;;;;;;;;;8.75;5.50;;;;;14.83;68.42;101600.72;5137856;27;74303;-76
2022/10/13 07:30:03;;;;;;;;;9.25;7.00;;;;;14.68;70.02;101602.94;5138952;27;45292;-76
2022/10/13 07:32:30;;;;;;;;;11.00;7.50;;;;;14.56;71.08;101605.06;5139058;27;45341;-76
2022/10/13 07:34:55;;;;;;;;;7.00;4.75;;;;;14.47;70.52;101607.06;5138893;27;45505;-76
2022/10/13 07:37:21;;;;;;;;;10.25;7.00;;;;;14.45;71.35;101608.00;5137748;27;75743;-77
2022/10/13 07:39:46;;;;;;;;;8.25;7.00;;;;;14.43;71.23;101605.47;5119775;27;45260;-77
2022/10/13 07:42:11;;;;;;;;;13.25;8.50;;;;;14.43;71.28;101602.84;5138894;27;45334;-77
2022/10/13 07:44:37;;;;;;;;;8.50;7.25;;;;;14.47;71.61;101614.06;5138940;27;45169;-77
2022/10/13 07:47:02;;;;;;;;;8.75;5.00;;;;;14.50;72.10;101614.84;5137692;27;73200;-77
2022/10/13 07:49:27;;;;;;;;;7.75;5.25;;;;;14.50;70.94;101616.59;5119235;27;66876;-78
2022/10/13 07:51:53;;;;;;;;;11.00;8.00;;;;;14.49;71.40;101609.66;5138387;27;49859;-78
2022/10/13 07:54:19;;;;;;;;;9.00;7.00;;;;;14.52;71.58;101620.88;5118687;27;45343;-78
2022/10/13 07:56:44;;;;;;;;;3.50;3.00;;;;;14.53;70.75;101611.25;5136861;27;45459;-79
2022/10/13 07:59:10;;;;;;;;;10.00;7.00;;;;;14.56;71.85;101615.53;5135508;27;45616;-79
2022/10/13 08:01:35;;;;;;;;;8.25;7.00;;;;;14.59;71.17;101620.72;5138032;27;45698;-79
2022/10/13 08:04:01;;;;;;;;;13.75;8.00;;;;;14.63;71.44;101612.69;5137857;27;45312;-78
2022/10/13 08:06:26;;;;;;;;;9.25;5.00;;;;;14.66;70.66;101620.47;5137782;27;47194;-78
2022/10/13 08:08:51;;;;;;;;;7.00;5.00;;;;;14.69;71.07;101624.75;5136454;27;45473;-79
2022/10/13 08:11:17;;;;;;;;;5.00;4.50;;;;;14.70;70.82;101635.19;5119227;27;45740;-79
2022/10/13 08:13:48;;;;;;;;;9.75;3.00;;;;;14.73;70.41;101630.75;5137876;27;45488;-79
2022/10/13 08:16:14;;;;;;;;;7.75;6.50;;;;;14.78;70.76;101627.06;5137681;27;45383;-80
2022/10/13 08:18:39;;;;;;;;;5.75;4.00;;;;;14.76;70.49;101631.50;5119411;27;45311;-79
2022/10/13 08:21:04;;;;;;;;;7.25;4.00;;;;;14.77;69.68;101617.50;5136649;27;69312;-79
2022/10/13 08:23:30;;;;;;;;;7.75;3.75;;;;;14.77;69.26;101619.28;5118512;27;50032;-80
2022/10/13 08:25:55;;;;;;;;;10.00;7.50;;;;;14.81;69.00;101618.28;5136695;27;67938;-79
2022/10/13 08:28:27;;;;;;;;;7.00;4.25;;;;;14.89;69.05;101622.38;5136608;27;72281;-79
2022/10/13 08:30:54;;;;;;;;;4.00;3.00;;;;;14.99;69.47;101622.91;5119419;27;45409;-79
2022/10/13 08:33:19;;;;;;;;;8.50;3.25;;;;;15.09;69.14;101624.28;5136359;27;45230;-80
2022/10/13 08:35:45;;;;;;;;;4.75;3.25;;;;;15.21;69.09;101622.16;5137207;27;46092;-79
2022/10/13 08:38:10;;;;;;;;;4.50;4.50;;;;;15.29;68.84;101625.41;5118582;27;45419;-79
2022/10/13 08:40:37;;;;;;;;;5.25;4.00;;;;;15.36;68.81;101626.91;5137768;27;45393;-80
2022/10/13 08:43:07;;;;;;;;;6.75;6.00;;;;;15.46;68.06;101633.53;5137413;27;45433;-79
2022/10/13 08:45:32;;;;;;;;;6.00;4.25;;;;;15.60;68.96;101635.69;5118801;27;46302;-79
2022/10/13 08:48:04;;;;;;;;;3.00;3.00;;;;;15.66;67.65;101627.56;5101507;27;45312;-79
2022/10/13 08:50:34;;;;;;;;;6.50;4.00;;;;;15.69;67.17;101626.59;5137421;27;45453;-79
2022/10/13 08:53:04;;;;;;;;;7.00;4.75;;;;;15.76;67.42;101628.13;5118601;27;45391;-80
2022/10/13 08:55:40;;;;;;;;;5.00;2.00;;;;;15.84;66.82;101626.09;5118389;27;46368;-79
2022/10/13 08:58:13;;;;;;;;;8.00;5.00;;;;;15.98;66.23;101625.56;5118677;27;45319;-80
2022/10/13 09:00:40;;;;;;;;;7.50;4.00;;;;;16.03;65.81;101626.25;5111492;27;45654;-77
2022/10/13 09:03:19;;;;;;;;;6.50;4.75;;;;;16.11;65.66;101619.88;5118489;27;45429;-78
2022/10/13 09:06:10;;;;;;;;;2.75;2.25;;;;;16.13;65.86;101618.03;5117704;27;45470;-78
2022/10/13 09:08:40;;;;;;;;;4.50;4.00;;;;;16.17;64.76;101617.00;5130389;27;45509;-79
2022/10/13 09:11:08;;;;;;;;;2.75;2.00;;;;;16.22;65.16;101618.53;5085882;27;45692;-78
2022/10/13 09:13:33;;;;;;;;;3.00;3.00;;;;;16.32;65.33;101616.38;5097673;27;45423;-79
2022/10/13 09:15:59;;;;;;;;;5.00;2.75;;;;;16.34;64.76;101616.34;5114761;27;74790;-79
2022/10/13 09:18:29;;;;;;;;;6.00;4.00;;;;;16.37;64.88;101622.31;5117226;27;45455;-79
2022/10/13 09:21:17;;;;;;;;;2.50;2.50;;;;;16.42;64.90;101619.53;5098477;27;45360;-78
2022/10/13 09:23:43;;;;;;;;;4.75;3.00;;;;;16.42;64.22;101633.53;5116337;27;45515;-79
2022/10/13 09:26:15;;;;;;;;;6.00;3.00;;;;;16.36;64.21;101618.00;5091470;27;48828;-79
2022/10/13 09:28:41;;;;;;;;;4.00;4.00;;;;;16.27;64.30;101610.47;5097846;27;45834;-79
2022/10/13 09:31:24;;;;;;;;;3.25;3.25;;;;;16.19;64.70;101610.75;5122025;27;70215;-79
2022/10/13 09:34:19;;;;;;;;;2.00;2.00;;;;;16.14;65.34;101602.22;5128711;27;45418;-80
2022/10/13 09:37:01;;;;;;;;;2.50;2.50;;;;;16.20;64.63;101607.22;5101329;27;46438;-79
2022/10/13 09:39:26;;;;;;;;;5.25;2.75;;;;;16.25;64.86;101597.41;5097564;27;45767;-79
2022/10/13 09:42:15;;;;;;;;;6.50;2.75;;;;;16.36;64.56;101599.63;5115639;27;47298;-79
2022/10/13 09:44:41;;;;;;;;;4.00;4.00;;;;;16.51;64.09;101602.53;5118643;27;45457;-79
2022/10/13 09:47:17;;;;;;;;;3.00;3.00;;;;;16.57;63.59;101604.94;5117921;27;69633;-79
2022/10/13 09:49:42;;;;;;;;;5.00;3.00;;;;;16.65;63.60;101608.09;5100629;27;45748;-79
2022/10/13 09:52:11;;;;;;;;;4.50;3.00;;;;;16.75;63.43;101601.56;5119365;27;45390;-79
2022/10/13 09:54:44;;;;;;;;;4.00;2.00;;;;;16.80;63.10;101611.88;5119287;27;45430;-79
2022/10/13 09:57:30;;;;;;;;;2.00;2.00;;;;;16.78;63.28;101614.56;5119389;27;45376;-79
2022/10/13 10:00:12;;;;;;;;;3.75;3.00;;;;;16.81;64.64;101617.06;5100829;27;45767;-80
2022/10/13 10:03:08;;;;;;;;;4.00;3.75;;;;;16.81;63.46;101619.69;5119503;27;45373;-79
2022/10/13 10:05:44;;;;;;;;;7.25;3.00;;;;;16.73;63.08;101616.50;5118606;27;45485;-79
2022/10/13 10:08:25;;;;;;;;;4.50;3.75;;;;;16.69;63.59;101609.66;5118816;27;46931;-79
2022/10/13 10:10:51;;;;;;;;;3.00;3.00;;;;;16.70;63.45;101607.91;5100874;27;45841;-80
2022/10/13 10:13:17;;;;;;;;;5.00;2.50;;;;;16.68;63.50;101602.72;5118954;27;45326;-80
2022/10/13 10:16:07;;;;;;;;;5.00;3.50;;;;;16.66;64.06;101604.56;5118348;27;58412;-79
2022/10/13 10:18:42;;;;;;;;;4.00;3.00;;;;;16.68;64.31;101614.97;5118913;27;45380;-79
2022/10/13 10:21:42;;;;;;;;;3.75;3.75;;;;;16.68;64.28;101613.22;5100564;27;45493;-80
2022/10/13 10:24:19;;;;;;;;;0.00;0.00;;;;;16.65;63.89;101613.34;5118940;27;45328;-79
2022/10/13 10:27:15;;;;;;;;;2.25;2.00;;;;;16.68;64.18;101615.88;5119072;27;45559;-80
2022/10/13 10:29:49;;;;;;;;;2.50;2.00;;;;;16.74;64.53;101605.09;5117936;27;46251;-80
2022/10/13 10:32:23;;;;;;;;;5.00;3.75;;;;;16.87;64.41;101604.63;5118490;27;45376;-80
2022/10/13 10:35:01;;;;;;;;;4.25;3.50;;;;;16.97;63.99;101601.53;5134801;27;45459;-80
2022/10/13 10:37:43;;;;;;;;;2.75;2.75;;;;;17.07;63.63;101595.88;5121069;27;45373;-80
2022/10/13 10:40:31;;;;;;;;;3.00;3.00;;;;;17.05;63.19;101598.59;5120768;27;46994;-80
2022/10/13 10:43:19;;;;;;;;;5.00;4.00;;;;;17.09;63.78;101587.03;5120929;27;45757;-80
2022/10/13 10:45:46;;;;;;;;;3.00;3.00;;;;;17.15;63.25;101586.75;5139334;27;45330;-79
2022/10/13 10:48:18;;;;;;;;;5.75;4.00;;;;;17.20;63.33;101584.78;5120512;27;45418;-80
2022/10/13 10:50:44;;;;;;;;;5.00;5.00;;;;;17.26;63.33;101591.56;5139288;27;46347;-80
2022/10/13 10:53:32;;;;;;;;;4.00;4.00;;;;;17.23;63.32;101596.94;5119450;27;73312;-80
2022/10/13 10:56:24;;;;;;;;;5.00;3.00;;;;;17.23;63.19;101586.41;5138290;27;45362;-80
2022/10/13 10:59:08;;;;;;;;;5.00;4.00;;;;;17.15;63.01;101586.75;5121245;27;45340;-80
2022/10/13 11:01:41;;;;;;;;;3.75;3.00;;;;;17.11;63.43;101587.81;5138945;27;47083;-80
2022/10/13 11:04:16;;;;;;;;;4.50;4.50;;;;;17.06;63.58;101586.28;5119977;27;45755;-79
2022/10/13 11:06:41;;;;;;;;;3.50;2.00;;;;;17.07;63.59;101580.97;5138890;27;45515;-79
2022/10/13 11:09:10;;;;;;;;;4.50;3.00;;;;;17.06;63.85;101587.13;5119520;27;69933;-78
2022/10/13 11:11:37;;;;;;;;;1.50;1.50;;;;;17.04;64.23;101586.34;5138821;27;45733;-78
2022/10/13 11:14:05;;;;;;;;;2.75;2.00;;;;;17.03;64.01;101574.09;5138684;27;45394;-79
2022/10/13 11:16:34;;;;;;;;;7.75;3.50;;;;;17.05;64.40;101576.69;5138241;27;45368;-80
2022/10/13 11:19:06;;;;;;;;;7.25;4.25;;;;;17.06;64.11;101579.25;5120306;27;45497;-80
2022/10/13 11:21:53;;;;;;;;;4.50;4.00;;;;;17.04;63.89;101578.47;5138531;27;47209;-79
2022/10/13 11:24:40;;;;;;;;;5.00;4.00;;;;;16.96;65.17;101575.31;5138659;27;45302;-79
2022/10/13 11:27:14;;;;;;;;;4.00;4.00;;;;;16.88;66.34;101567.72;5139046;27;45403;-79